sensor_id;sensor_type;location;lat;lon;timestamp;temperature;humidity
39325;DHT22;25037;49.488;9.900;2023-04-02T00:01:03;11.90;69.40
39325;DHT22;25037;49.488;9.900;2023-04-02T00:12:10;11.90;69.40
39325;DHT22;25037;49.488;9.900;2023-04-02T00:14:32;11.90;69.40
39325;DHT22;25037;49.488;9.900;2023-04-02T00:17:02;11.80;69.30
39325;DHT22;25037;49.488;9.900;2023-04-02T00:19:38;11.90;69.30
39325;DHT22;25037;49.488;9.900;2023-04-02T00:22:18;11.90;69.40
39325;DHT22;25037;49.488;9.900;2023-04-02T00:24:45;11.90;69.40
39325;DHT22;25037;49.488;9.900;2023-04-02T00:27:13;11.90;69.40
39325;DHT22;25037;49.488;9.900;2023-04-02T00:29:48;11.90;69.40
39325;DHT22;25037;49.488;9.900;2023-04-02T00:32:27;11.90;69.50
39325;DHT22;25037;49.488;9.900;2023-04-02T00:34:55;11.90;69.40
39325;DHT22;25037;49.488;9.900;2023-04-02T00:37:25;11.90;69.40
39325;DHT22;25037;49.488;9.900;2023-04-02T00:40:00;11.80;69.40
39325;DHT22;25037;49.488;9.900;2023-04-02T00:42:31;11.80;69.50
39325;DHT22;25037;49.488;9.900;2023-04-02T00:45:01;11.80;69.50
39325;DHT22;25037;49.488;9.900;2023-04-02T00:47:32;11.80;69.50
39325;DHT22;25037;49.488;9.900;2023-04-02T00:52:34;11.80;69.60
39325;DHT22;25037;49.488;9.900;2023-04-02T00:55:21;11.80;69.50
39325;DHT22;25037;49.488;9.900;2023-04-02T00:57:50;11.90;69.60
39325;DHT22;25037;49.488;9.900;2023-04-02T01:00:26;11.80;69.60
39325;DHT22;25037;49.488;9.900;2023-04-02T01:03:24;11.80;69.70
39325;DHT22;25037;49.488;9.900;2023-04-02T01:06:15;11.80;69.70
39325;DHT22;25037;49.488;9.900;2023-04-02T01:09:17;11.80;69.60
39325;DHT22;25037;49.488;9.900;2023-04-02T01:11:50;11.80;69.60
39325;DHT22;25037;49.488;9.900;2023-04-02T01:14:36;11.80;69.50
39325;DHT22;25037;49.488;9.900;2023-04-02T01:26:00;11.70;69.70
39325;DHT22;25037;49.488;9.900;2023-04-02T01:31:22;11.80;69.80
39325;DHT22;25037;49.488;9.900;2023-04-02T01:33:49;11.80;69.80
39325;DHT22;25037;49.488;9.900;2023-04-02T01:39:00;11.80;69.90
39325;DHT22;25037;49.488;9.900;2023-04-02T01:41:30;11.80;69.90
39325;DHT22;25037;49.488;9.900;2023-04-02T01:44:04;11.80;69.90
39325;DHT22;25037;49.488;9.900;2023-04-02T01:46:34;11.80;69.90
39325;DHT22;25037;49.488;9.900;2023-04-02T01:49:14;11.80;70.00
39325;DHT22;25037;49.488;9.900;2023-04-02T01:51:44;11.80;70.10
39325;DHT22;25037;49.488;9.900;2023-04-02T01:54:13;11.80;70.00
39325;DHT22;25037;49.488;9.900;2023-04-02T01:56:42;11.80;70.10
39325;DHT22;25037;49.488;9.900;2023-04-02T01:59:10;11.80;70.10
39325;DHT22;25037;49.488;9.900;2023-04-02T02:01:43;11.80;70.20
39325;DHT22;25037;49.488;9.900;2023-04-02T02:04:12;11.80;70.20
39325;DHT22;25037;49.488;9.900;2023-04-02T02:06:39;11.80;70.20
39325;DHT22;25037;49.488;9.900;2023-04-02T02:09:07;11.90;70.30
39325;DHT22;25037;49.488;9.900;2023-04-02T02:11:38;11.90;70.30
39325;DHT22;25037;49.488;9.900;2023-04-02T02:14:11;11.90;70.30
39325;DHT22;25037;49.488;9.900;2023-04-02T02:16:39;12.00;70.20
39325;DHT22;25037;49.488;9.900;2023-04-02T02:19:21;12.00;70.10
39325;DHT22;25037;49.488;9.900;2023-04-02T02:21:51;12.00;70.20
39325;DHT22;25037;49.488;9.900;2023-04-02T02:24:26;12.00;70.10
39325;DHT22;25037;49.488;9.900;2023-04-02T02:29:59;12.00;70.20
39325;DHT22;25037;49.488;9.900;2023-04-02T02:32:29;12.00;70.20
39325;DHT22;25037;49.488;9.900;2023-04-02T02:35:21;11.90;70.30
39325;DHT22;25037;49.488;9.900;2023-04-02T02:37:56;11.90;70.30
39325;DHT22;25037;49.488;9.900;2023-04-02T02:40:35;11.80;70.50
39325;DHT22;25037;49.488;9.900;2023-04-02T02:43:08;11.80;70.50
39325;DHT22;25037;49.488;9.900;2023-04-02T02:45:37;11.80;70.60
39325;DHT22;25037;49.488;9.900;2023-04-02T02:48:09;11.80;70.30
39325;DHT22;25037;49.488;9.900;2023-04-02T02:50:38;11.80;70.50
39325;DHT22;25037;49.488;9.900;2023-04-02T02:53:16;11.80;70.40
39325;DHT22;25037;49.488;9.900;2023-04-02T02:55:45;11.70;70.60
39325;DHT22;25037;49.488;9.900;2023-04-02T02:58:22;11.70;70.60
39325;DHT22;25037;49.488;9.900;2023-04-02T03:00:52;11.80;70.80
39325;DHT22;25037;49.488;9.900;2023-04-02T03:03:25;11.70;70.70
39325;DHT22;25037;49.488;9.900;2023-04-02T03:05:53;11.70;70.80
39325;DHT22;25037;49.488;9.900;2023-04-02T03:08:31;11.70;70.60
39325;DHT22;25037;49.488;9.900;2023-04-02T03:11:17;11.80;70.80
39325;DHT22;25037;49.488;9.900;2023-04-02T03:13:49;11.70;70.80
39325;DHT22;25037;49.488;9.900;2023-04-02T03:16:24;11.70;70.80
39325;DHT22;25037;49.488;9.900;2023-04-02T03:21:53;11.70;70.90
39325;DHT22;25037;49.488;9.900;2023-04-02T03:27:27;11.70;71.00
39325;DHT22;25037;49.488;9.900;2023-04-02T03:30:24;11.60;71.10
39325;DHT22;25037;49.488;9.900;2023-04-02T03:32:56;11.60;71.00
39325;DHT22;25037;49.488;9.900;2023-04-02T03:38:25;11.60;71.10
39325;DHT22;25037;49.488;9.900;2023-04-02T03:43:30;11.60;71.30
39325;DHT22;25037;49.488;9.900;2023-04-02T03:49:02;11.60;71.30
39325;DHT22;25037;49.488;9.900;2023-04-02T03:51:43;11.50;71.30
39325;DHT22;25037;49.488;9.900;2023-04-02T03:54:15;11.50;71.30
39325;DHT22;25037;49.488;9.900;2023-04-02T03:56:43;11.50;71.40
39325;DHT22;25037;49.488;9.900;2023-04-02T03:59:27;11.50;71.40
39325;DHT22;25037;49.488;9.900;2023-04-02T04:04:58;11.50;71.50
39325;DHT22;25037;49.488;9.900;2023-04-02T04:07:31;11.50;71.40
39325;DHT22;25037;49.488;9.900;2023-04-02T04:10:00;11.50;71.60
39325;DHT22;25037;49.488;9.900;2023-04-02T04:12:34;11.60;71.50
39325;DHT22;25037;49.488;9.900;2023-04-02T04:15:08;11.50;71.60
39325;DHT22;25037;49.488;9.900;2023-04-02T04:18:11;11.60;71.60
39325;DHT22;25037;49.488;9.900;2023-04-02T04:20:54;11.60;71.50
39325;DHT22;25037;49.488;9.900;2023-04-02T04:26:17;11.50;71.70
39325;DHT22;25037;49.488;9.900;2023-04-02T04:31:45;11.50;71.70
39325;DHT22;25037;49.488;9.900;2023-04-02T04:34:16;11.50;71.80
39325;DHT22;25037;49.488;9.900;2023-04-02T04:36:48;11.50;71.80
39325;DHT22;25037;49.488;9.900;2023-04-02T04:39:30;11.40;71.80
39325;DHT22;25037;49.488;9.900;2023-04-02T04:42:02;11.50;71.90
39325;DHT22;25037;49.488;9.900;2023-04-02T04:44:41;11.40;71.80
39325;DHT22;25037;49.488;9.900;2023-04-02T04:47:18;11.40;71.90
39325;DHT22;25037;49.488;9.900;2023-04-02T04:53:05;11.40;71.90
39325;DHT22;25037;49.488;9.900;2023-04-02T04:55:42;11.30;72.00
39325;DHT22;25037;49.488;9.900;2023-04-02T04:58:20;11.30;72.10
39325;DHT22;25037;49.488;9.900;2023-04-02T05:03:47;11.30;72.10
39325;DHT22;25037;49.488;9.900;2023-04-02T05:09:05;11.20;72.10
39325;DHT22;25037;49.488;9.900;2023-04-02T05:11:46;11.30;72.10
39325;DHT22;25037;49.488;9.900;2023-04-02T05:14:32;11.20;72.10
39325;DHT22;25037;49.488;9.900;2023-04-02T05:17:09;11.30;72.10
39325;DHT22;25037;49.488;9.900;2023-04-02T05:19:46;11.20;72.10
39325;DHT22;25037;49.488;9.900;2023-04-02T05:25:26;11.20;72.20
39325;DHT22;25037;49.488;9.900;2023-04-02T05:30:55;11.20;72.30
39325;DHT22;25037;49.488;9.900;2023-04-02T05:33:28;11.30;72.30
39325;DHT22;25037;49.488;9.900;2023-04-02T05:36:02;11.30;72.20
39325;DHT22;25037;49.488;9.900;2023-04-02T05:38:36;11.30;72.20
39325;DHT22;25037;49.488;9.900;2023-04-02T05:44:21;11.40;72.10
39325;DHT22;25037;49.488;9.900;2023-04-02T05:46:55;11.40;72.20
39325;DHT22;25037;49.488;9.900;2023-04-02T05:49:25;11.40;72.10
39325;DHT22;25037;49.488;9.900;2023-04-02T05:51:57;11.50;71.80
39325;DHT22;25037;49.488;9.900;2023-04-02T05:57:24;11.60;71.90
39325;DHT22;25037;49.488;9.900;2023-04-02T06:03:05;11.70;71.80
39325;DHT22;25037;49.488;9.900;2023-04-02T06:05:39;11.70;71.80
39325;DHT22;25037;49.488;9.900;2023-04-02T06:08:12;11.80;71.80
39325;DHT22;25037;49.488;9.900;2023-04-02T06:10:57;11.80;71.70
39325;DHT22;25037;49.488;9.900;2023-04-02T06:13:26;11.80;71.60
39325;DHT22;25037;49.488;9.900;2023-04-02T06:15:53;11.90;71.50
39325;DHT22;25037;49.488;9.900;2023-04-02T06:18:27;12.00;71.50
39325;DHT22;25037;49.488;9.900;2023-04-02T06:20:55;12.10;71.40
39325;DHT22;25037;49.488;9.900;2023-04-02T06:28:39;12.30;71.10
39325;DHT22;25037;49.488;9.900;2023-04-02T06:31:17;12.30;70.90
39325;DHT22;25037;49.488;9.900;2023-04-02T06:33:44;12.40;70.80
39325;DHT22;25037;49.488;9.900;2023-04-02T06:36:11;12.40;70.70
39325;DHT22;25037;49.488;9.900;2023-04-02T06:38:38;12.50;70.50
39325;DHT22;25037;49.488;9.900;2023-04-02T06:41:16;12.70;70.40
39325;DHT22;25037;49.488;9.900;2023-04-02T06:43:52;12.70;70.20
39325;DHT22;25037;49.488;9.900;2023-04-02T06:46:30;12.80;70.00
39325;DHT22;25037;49.488;9.900;2023-04-02T06:49:17;12.90;69.80
39325;DHT22;25037;49.488;9.900;2023-04-02T06:51:45;13.00;69.50
39325;DHT22;25037;49.488;9.900;2023-04-02T06:54:14;13.10;69.40
39325;DHT22;25037;49.488;9.900;2023-04-02T06:56:47;13.10;69.20
39325;DHT22;25037;49.488;9.900;2023-04-02T06:59:15;13.30;68.90
39325;DHT22;25037;49.488;9.900;2023-04-02T07:01:51;13.30;68.90
39325;DHT22;25037;49.488;9.900;2023-04-02T07:04:19;13.40;68.60
39325;DHT22;25037;49.488;9.900;2023-04-02T07:06:47;13.50;68.60
39325;DHT22;25037;49.488;9.900;2023-04-02T07:09:13;13.50;68.50
39325;DHT22;25037;49.488;9.900;2023-04-02T07:11:40;13.60;68.30
39325;DHT22;25037;49.488;9.900;2023-04-02T07:14:10;13.70;68.20
39325;DHT22;25037;49.488;9.900;2023-04-02T07:16:37;13.70;67.90
39325;DHT22;25037;49.488;9.900;2023-04-02T07:19:04;13.80;67.70
39325;DHT22;25037;49.488;9.900;2023-04-02T07:21:31;13.80;67.60
39325;DHT22;25037;49.488;9.900;2023-04-02T07:23:58;13.90;67.40
39325;DHT22;25037;49.488;9.900;2023-04-02T07:26:26;14.00;67.20
39325;DHT22;25037;49.488;9.900;2023-04-02T07:28:54;14.00;67.10
39325;DHT22;25037;49.488;9.900;2023-04-02T07:31:26;14.10;67.00
39325;DHT22;25037;49.488;9.900;2023-04-02T07:33:55;14.20;66.80
39325;DHT22;25037;49.488;9.900;2023-04-02T07:36:24;14.20;66.70
39325;DHT22;25037;49.488;9.900;2023-04-02T07:38:51;14.30;66.70
39325;DHT22;25037;49.488;9.900;2023-04-02T07:41:18;14.40;66.40
39325;DHT22;25037;49.488;9.900;2023-04-02T07:43:46;14.40;66.20
39325;DHT22;25037;49.488;9.900;2023-04-02T07:46:14;14.40;66.10
39325;DHT22;25037;49.488;9.900;2023-04-02T07:48:43;14.40;66.00
39325;DHT22;25037;49.488;9.900;2023-04-02T07:51:21;14.40;65.90
39325;DHT22;25037;49.488;9.900;2023-04-02T07:53:48;14.40;65.80
39325;DHT22;25037;49.488;9.900;2023-04-02T07:56:18;14.30;66.00
39325;DHT22;25037;49.488;9.900;2023-04-02T07:58:45;14.20;66.00
39325;DHT22;25037;49.488;9.900;2023-04-02T08:01:30;14.30;65.90
39325;DHT22;25037;49.488;9.900;2023-04-02T08:04:02;14.30;65.80
39325;DHT22;25037;49.488;9.900;2023-04-02T08:06:29;14.20;65.80
39325;DHT22;25037;49.488;9.900;2023-04-02T08:08:57;14.10;65.80
39325;DHT22;25037;49.488;9.900;2023-04-02T08:11:24;14.10;65.70
39325;DHT22;25037;49.488;9.900;2023-04-02T08:13:50;14.10;65.80
39325;DHT22;25037;49.488;9.900;2023-04-02T08:16:17;14.10;66.10
39325;DHT22;25037;49.488;9.900;2023-04-02T08:18:44;13.90;66.50
39325;DHT22;25037;49.488;9.900;2023-04-02T08:21:13;13.70;66.70
39325;DHT22;25037;49.488;9.900;2023-04-02T08:23:42;13.60;66.90
39325;DHT22;25037;49.488;9.900;2023-04-02T08:26:09;13.50;66.70
39325;DHT22;25037;49.488;9.900;2023-04-02T08:28:35;13.30;66.90
39325;DHT22;25037;49.488;9.900;2023-04-02T08:31:02;13.20;67.10
39325;DHT22;25037;49.488;9.900;2023-04-02T08:33:30;13.00;67.20
39325;DHT22;25037;49.488;9.900;2023-04-02T08:35:57;12.80;67.50
39325;DHT22;25037;49.488;9.900;2023-04-02T08:38:24;12.70;67.60
39325;DHT22;25037;49.488;9.900;2023-04-02T08:40:53;12.60;67.90
39325;DHT22;25037;49.488;9.900;2023-04-02T08:43:51;12.50;68.20
39325;DHT22;25037;49.488;9.900;2023-04-02T08:46:43;12.40;68.30
39325;DHT22;25037;49.488;9.900;2023-04-02T08:49:18;12.30;68.50
39325;DHT22;25037;49.488;9.900;2023-04-02T08:51:48;12.10;68.70
39325;DHT22;25037;49.488;9.900;2023-04-02T08:54:32;12.00;68.60
39325;DHT22;25037;49.488;9.900;2023-04-02T08:57:06;12.00;68.40
39325;DHT22;25037;49.488;9.900;2023-04-02T08:59:39;11.90;68.60
39325;DHT22;25037;49.488;9.900;2023-04-02T09:04:39;11.90;68.60
39325;DHT22;25037;49.488;9.900;2023-04-02T09:07:11;11.80;68.60
39325;DHT22;25037;49.488;9.900;2023-04-02T09:09:39;11.80;68.70
39325;DHT22;25037;49.488;9.900;2023-04-02T09:12:20;11.70;68.60
39325;DHT22;25037;49.488;9.900;2023-04-02T09:18:10;11.60;68.60
39325;DHT22;25037;49.488;9.900;2023-04-02T09:20:38;11.50;68.80
39325;DHT22;25037;49.488;9.900;2023-04-02T09:23:13;11.50;68.80
39325;DHT22;25037;49.488;9.900;2023-04-02T09:25:44;11.40;68.70
39325;DHT22;25037;49.488;9.900;2023-04-02T09:28:26;11.30;68.70
39325;DHT22;25037;49.488;9.900;2023-04-02T09:31:00;11.30;68.90
39325;DHT22;25037;49.488;9.900;2023-04-02T09:33:47;11.20;68.70
39325;DHT22;25037;49.488;9.900;2023-04-02T09:39:03;11.30;69.10
39325;DHT22;25037;49.488;9.900;2023-04-02T09:41:34;11.30;68.80
39325;DHT22;25037;49.488;9.900;2023-04-02T09:44:26;11.20;68.60
39325;DHT22;25037;49.488;9.900;2023-04-02T09:47:01;11.20;68.80
39325;DHT22;25037;49.488;9.900;2023-04-02T09:49:38;11.00;68.60
39325;DHT22;25037;49.488;9.900;2023-04-02T09:52:21;11.10;69.10
39325;DHT22;25037;49.488;9.900;2023-04-02T09:57:45;11.10;68.50
39325;DHT22;25037;49.488;9.900;2023-04-02T10:00:20;11.10;68.50
39325;DHT22;25037;49.488;9.900;2023-04-02T10:05:29;11.10;68.70
39325;DHT22;25037;49.488;9.900;2023-04-02T10:08:25;11.20;68.80
39325;DHT22;25037;49.488;9.900;2023-04-02T10:10:56;11.30;68.60
39325;DHT22;25037;49.488;9.900;2023-04-02T10:16:27;11.50;68.50
39325;DHT22;25037;49.488;9.900;2023-04-02T10:19:05;11.60;68.30
39325;DHT22;25037;49.488;9.900;2023-04-02T10:21:37;11.50;67.90
39325;DHT22;25037;49.488;9.900;2023-04-02T10:24:13;11.50;68.30
39325;DHT22;25037;49.488;9.900;2023-04-02T10:32:39;11.30;69.30
39325;DHT22;25037;49.488;9.900;2023-04-02T10:35:27;11.40;68.90
39325;DHT22;25037;49.488;9.900;2023-04-02T10:38:40;11.40;69.00
39325;DHT22;25037;49.488;9.900;2023-04-02T10:41:56;11.50;68.80
39325;DHT22;25037;49.488;9.900;2023-04-02T10:44:38;11.50;68.80
39325;DHT22;25037;49.488;9.900;2023-04-02T10:47:15;11.60;68.80
39325;DHT22;25037;49.488;9.900;2023-04-02T10:52:44;11.80;69.00
39325;DHT22;25037;49.488;9.900;2023-04-02T10:55:21;11.80;68.60
39325;DHT22;25037;49.488;9.900;2023-04-02T10:57:50;11.90;68.60
39325;DHT22;25037;49.488;9.900;2023-04-02T11:00:26;12.00;68.20
39325;DHT22;25037;49.488;9.900;2023-04-02T11:03:12;11.90;67.90
39325;DHT22;25037;49.488;9.900;2023-04-02T11:05:49;11.90;68.00
39325;DHT22;25037;49.488;9.900;2023-04-02T11:08:37;11.80;68.00
39325;DHT22;25037;49.488;9.900;2023-04-02T11:11:22;11.80;67.90
39325;DHT22;25037;49.488;9.900;2023-04-02T11:14:03;11.70;67.70
39325;DHT22;25037;49.488;9.900;2023-04-02T11:16:32;11.80;67.90
39325;DHT22;25037;49.488;9.900;2023-04-02T11:21:50;11.90;67.40
39325;DHT22;25037;49.488;9.900;2023-04-02T11:32:44;11.90;66.20
39325;DHT22;25037;49.488;9.900;2023-04-02T11:46:30;11.90;65.20
39325;DHT22;25037;49.488;9.900;2023-04-02T11:48:49;11.80;65.30
39325;DHT22;25037;49.488;9.900;2023-04-02T11:53:51;11.70;65.20
39325;DHT22;25037;49.488;9.900;2023-04-02T11:56:55;11.70;65.20
39325;DHT22;25037;49.488;9.900;2023-04-02T11:59:36;11.60;64.70
39325;DHT22;25037;49.488;9.900;2023-04-02T12:02:47;11.60;65.00
39325;DHT22;25037;49.488;9.900;2023-04-02T12:05:34;11.60;65.10
39325;DHT22;25037;49.488;9.900;2023-04-02T12:08:22;11.60;65.20
39325;DHT22;25037;49.488;9.900;2023-04-02T12:10:58;11.70;64.80
39325;DHT22;25037;49.488;9.900;2023-04-02T12:16:11;11.60;64.50
39325;DHT22;25037;49.488;9.900;2023-04-02T12:18:46;11.50;64.30
39325;DHT22;25037;49.488;9.900;2023-04-02T12:21:15;11.30;64.00
39325;DHT22;25037;49.488;9.900;2023-04-02T12:23:45;11.30;64.30
39325;DHT22;25037;49.488;9.900;2023-04-02T12:26:26;11.30;64.30
39325;DHT22;25037;49.488;9.900;2023-04-02T12:31:46;11.30;64.00
39325;DHT22;25037;49.488;9.900;2023-04-02T12:34:13;11.30;64.10
39325;DHT22;25037;49.488;9.900;2023-04-02T12:37:02;11.20;64.20
39325;DHT22;25037;49.488;9.900;2023-04-02T12:39:33;11.30;64.20
39325;DHT22;25037;49.488;9.900;2023-04-02T12:42:00;11.30;64.30
39325;DHT22;25037;49.488;9.900;2023-04-02T12:44:29;11.40;64.40
39325;DHT22;25037;49.488;9.900;2023-04-02T12:46:57;11.30;64.60
39325;DHT22;25037;49.488;9.900;2023-04-02T12:49:40;11.30;64.70
39325;DHT22;25037;49.488;9.900;2023-04-02T12:52:19;11.20;64.70
39325;DHT22;25037;49.488;9.900;2023-04-02T12:54:58;11.10;65.00
39325;DHT22;25037;49.488;9.900;2023-04-02T12:59:59;10.90;64.60
39325;DHT22;25037;49.488;9.900;2023-04-02T13:02:28;10.90;64.80
39325;DHT22;25037;49.488;9.900;2023-04-02T13:04:58;11.00;64.50
39325;DHT22;25037;49.488;9.900;2023-04-02T13:07:29;11.10;64.50
39325;DHT22;25037;49.488;9.900;2023-04-02T13:10:04;11.20;64.50
39325;DHT22;25037;49.488;9.900;2023-04-02T13:12:37;11.30;64.20
39325;DHT22;25037;49.488;9.900;2023-04-02T13:15:21;11.30;64.20
39325;DHT22;25037;49.488;9.900;2023-04-02T13:20:41;11.30;63.90
39325;DHT22;25037;49.488;9.900;2023-04-02T13:23:43;11.20;63.90
39325;DHT22;25037;49.488;9.900;2023-04-02T13:29:16;11.00;63.60
39325;DHT22;25037;49.488;9.900;2023-04-02T13:31:44;11.00;63.90
39325;DHT22;25037;49.488;9.900;2023-04-02T13:34:10;11.00;63.90
39325;DHT22;25037;49.488;9.900;2023-04-02T13:36:37;11.10;63.70
39325;DHT22;25037;49.488;9.900;2023-04-02T13:39:04;11.00;63.40
39325;DHT22;25037;49.488;9.900;2023-04-02T13:41:39;11.00;63.30
39325;DHT22;25037;49.488;9.900;2023-04-02T13:44:09;10.80;63.40
39325;DHT22;25037;49.488;9.900;2023-04-02T13:46:40;10.80;63.60
39325;DHT22;25037;49.488;9.900;2023-04-02T13:49:09;10.90;63.50
39325;DHT22;25037;49.488;9.900;2023-04-02T13:51:39;11.00;63.10
39325;DHT22;25037;49.488;9.900;2023-04-02T13:54:55;11.10;63.00
39325;DHT22;25037;49.488;9.900;2023-04-02T13:56:56;11.00;62.80
39325;DHT22;25037;49.488;9.900;2023-04-02T13:59:24;11.00;62.70
39325;DHT22;25037;49.488;9.900;2023-04-02T14:01:54;11.10;62.80
39325;DHT22;25037;49.488;9.900;2023-04-02T14:04:26;11.10;62.50
39325;DHT22;25037;49.488;9.900;2023-04-02T14:07:07;11.00;62.70
39325;DHT22;25037;49.488;9.900;2023-04-02T14:10:12;10.90;62.60
39325;DHT22;25037;49.488;9.900;2023-04-02T14:18:39;10.50;62.70
39325;DHT22;25037;49.488;9.900;2023-04-02T14:24:31;10.20;62.70
39325;DHT22;25037;49.488;9.900;2023-04-02T14:30:11;10.30;63.10
39325;DHT22;25037;49.488;9.900;2023-04-02T14:33:09;10.20;63.20
39325;DHT22;25037;49.488;9.900;2023-04-02T14:36:03;10.20;63.20
39325;DHT22;25037;49.488;9.900;2023-04-02T14:38:48;10.30;63.10
39325;DHT22;25037;49.488;9.900;2023-04-02T14:41:16;10.30;63.00
39325;DHT22;25037;49.488;9.900;2023-04-02T14:43:51;10.20;63.00
39325;DHT22;25037;49.488;9.900;2023-04-02T14:46:24;10.20;63.30
39325;DHT22;25037;49.488;9.900;2023-04-02T14:51:40;10.10;63.30
39325;DHT22;25037;49.488;9.900;2023-04-02T14:54:37;10.10;63.40
39325;DHT22;25037;49.488;9.900;2023-04-02T14:57:28;10.20;63.00
39325;DHT22;25037;49.488;9.900;2023-04-02T15:02:37;10.10;62.60
39325;DHT22;25037;49.488;9.900;2023-04-02T15:05:15;10.10;62.60
39325;DHT22;25037;49.488;9.900;2023-04-02T15:10:27;9.80;62.50
39325;DHT22;25037;49.488;9.900;2023-04-02T15:12:56;9.80;62.50
39325;DHT22;25037;49.488;9.900;2023-04-02T15:15:57;9.70;62.40
39325;DHT22;25037;49.488;9.900;2023-04-02T15:18:24;9.80;62.20
39325;DHT22;25037;49.488;9.900;2023-04-02T15:21:23;9.70;62.10
39325;DHT22;25037;49.488;9.900;2023-04-02T15:23:59;9.70;62.20
39325;DHT22;25037;49.488;9.900;2023-04-02T15:32:41;9.40;62.60
39325;DHT22;25037;49.488;9.900;2023-04-02T15:35:17;9.20;62.90
39325;DHT22;25037;49.488;9.900;2023-04-02T15:38:15;9.10;62.90
39325;DHT22;25037;49.488;9.900;2023-04-02T15:41:08;9.00;62.80
39325;DHT22;25037;49.488;9.900;2023-04-02T15:43:47;8.90;62.70
39325;DHT22;25037;49.488;9.900;2023-04-02T15:49:42;8.80;63.30
39325;DHT22;25037;49.488;9.900;2023-04-02T15:52:37;8.80;63.30
39325;DHT22;25037;49.488;9.900;2023-04-02T16:01:03;8.80;63.00
39325;DHT22;25037;49.488;9.900;2023-04-02T16:06:26;8.70;62.90
39325;DHT22;25037;49.488;9.900;2023-04-02T16:09:21;8.60;62.80
39325;DHT22;25037;49.488;9.900;2023-04-02T16:12:08;8.50;62.20
39325;DHT22;25037;49.488;9.900;2023-04-02T16:14:38;8.40;62.20
39325;DHT22;25037;49.488;9.900;2023-04-02T16:17:14;8.30;61.80
39325;DHT22;25037;49.488;9.900;2023-04-02T16:20:04;8.20;61.60
39325;DHT22;25037;49.488;9.900;2023-04-02T16:22:33;8.10;61.40
39325;DHT22;25037;49.488;9.900;2023-04-02T16:25:16;8.00;61.20
39325;DHT22;25037;49.488;9.900;2023-04-02T16:34:04;8.00;61.30
39325;DHT22;25037;49.488;9.900;2023-04-02T16:45:29;7.90;60.10
39325;DHT22;25037;49.488;9.900;2023-04-02T16:48:06;7.90;59.90
39325;DHT22;25037;49.488;9.900;2023-04-02T16:53:36;7.90;59.80
39325;DHT22;25037;49.488;9.900;2023-04-02T16:56:49;7.90;59.60
39325;DHT22;25037;49.488;9.900;2023-04-02T16:59:30;7.80;59.80
39325;DHT22;25037;49.488;9.900;2023-04-02T17:09:49;7.70;59.70
39325;DHT22;25037;49.488;9.900;2023-04-02T17:12:32;7.60;59.50
39325;DHT22;25037;49.488;9.900;2023-04-02T17:15:19;7.60;59.50
39325;DHT22;25037;49.488;9.900;2023-04-02T17:17:53;7.60;59.50
39325;DHT22;25037;49.488;9.900;2023-04-02T17:20:23;7.60;59.30
39325;DHT22;25037;49.488;9.900;2023-04-02T17:22:51;7.50;59.40
39325;DHT22;25037;49.488;9.900;2023-04-02T17:25:27;7.40;59.40
39325;DHT22;25037;49.488;9.900;2023-04-02T17:27:55;7.40;59.50
39325;DHT22;25037;49.488;9.900;2023-04-02T17:30:36;7.30;59.00
39325;DHT22;25037;49.488;9.900;2023-04-02T17:33:12;7.20;58.40
39325;DHT22;25037;49.488;9.900;2023-04-02T17:44:36;6.80;59.40
39325;DHT22;25037;49.488;9.900;2023-04-02T17:55:54;6.80;59.80
39325;DHT22;25037;49.488;9.900;2023-04-02T18:06:21;6.80;60.30
39325;DHT22;25037;49.488;9.900;2023-04-02T18:12:01;6.90;60.10
39325;DHT22;25037;49.488;9.900;2023-04-02T18:25:54;6.70;60.20
39325;DHT22;25037;49.488;9.900;2023-04-02T18:42:12;6.80;59.80
39325;DHT22;25037;49.488;9.900;2023-04-02T18:45:09;6.80;59.80
39325;DHT22;25037;49.488;9.900;2023-04-02T18:48:11;6.80;59.50
39325;DHT22;25037;49.488;9.900;2023-04-02T18:50:39;6.80;59.60
39325;DHT22;25037;49.488;9.900;2023-04-02T18:53:16;6.80;59.60
39325;DHT22;25037;49.488;9.900;2023-04-02T18:55:48;6.80;59.80
39325;DHT22;25037;49.488;9.900;2023-04-02T18:58:41;6.80;60.30
39325;DHT22;25037;49.488;9.900;2023-04-02T19:01:15;6.90;60.50
39325;DHT22;25037;49.488;9.900;2023-04-02T19:03:51;7.00;60.30
39325;DHT22;25037;49.488;9.900;2023-04-02T19:06:27;7.10;60.10
39325;DHT22;25037;49.488;9.900;2023-04-02T19:09:03;7.10;60.10
39325;DHT22;25037;49.488;9.900;2023-04-02T19:11:33;7.20;60.10
39325;DHT22;25037;49.488;9.900;2023-04-02T19:14:03;7.10;59.90
39325;DHT22;25037;49.488;9.900;2023-04-02T19:19:20;7.00;60.00
39325;DHT22;25037;49.488;9.900;2023-04-02T19:22:09;7.00;60.10
39325;DHT22;25037;49.488;9.900;2023-04-02T19:30:55;6.80;60.00
39325;DHT22;25037;49.488;9.900;2023-04-02T19:41:50;6.80;60.40
39325;DHT22;25037;49.488;9.900;2023-04-02T19:44:18;6.80;60.50
39325;DHT22;25037;49.488;9.900;2023-04-02T19:46:45;6.80;60.50
39325;DHT22;25037;49.488;9.900;2023-04-02T19:49:26;6.80;60.50
39325;DHT22;25037;49.488;9.900;2023-04-02T19:51:53;6.80;60.70
39325;DHT22;25037;49.488;9.900;2023-04-02T19:54:21;6.70;60.70
39325;DHT22;25037;49.488;9.900;2023-04-02T19:56:48;6.80;60.70
39325;DHT22;25037;49.488;9.900;2023-04-02T19:59:14;6.80;60.60
39325;DHT22;25037;49.488;9.900;2023-04-02T20:01:44;6.80;60.70
39325;DHT22;25037;49.488;9.900;2023-04-02T20:04:11;6.80;60.70
39325;DHT22;25037;49.488;9.900;2023-04-02T20:06:37;6.70;60.70
39325;DHT22;25037;49.488;9.900;2023-04-02T20:09:04;6.80;60.70
39325;DHT22;25037;49.488;9.900;2023-04-02T20:11:34;6.80;60.60
39325;DHT22;25037;49.488;9.900;2023-04-02T20:14:02;6.80;60.50
39325;DHT22;25037;49.488;9.900;2023-04-02T20:16:29;6.80;60.50
39325;DHT22;25037;49.488;9.900;2023-04-02T20:18:56;6.80;59.90
39325;DHT22;25037;49.488;9.900;2023-04-02T20:21:22;6.70;59.70
39325;DHT22;25037;49.488;9.900;2023-04-02T20:23:53;6.70;59.70
39325;DHT22;25037;49.488;9.900;2023-04-02T20:26:19;6.70;59.70
39325;DHT22;25037;49.488;9.900;2023-04-02T20:28:47;6.70;59.80
39325;DHT22;25037;49.488;9.900;2023-04-02T20:31:16;6.70;59.70
39325;DHT22;25037;49.488;9.900;2023-04-02T20:33:43;6.70;59.50
39325;DHT22;25037;49.488;9.900;2023-04-02T20:36:13;6.70;59.40
39325;DHT22;25037;49.488;9.900;2023-04-02T20:38:39;6.70;59.00
39325;DHT22;25037;49.488;9.900;2023-04-02T20:41:07;6.60;58.90
39325;DHT22;25037;49.488;9.900;2023-04-02T20:43:35;6.60;58.60
39325;DHT22;25037;49.488;9.900;2023-04-02T20:46:04;6.60;58.60
39325;DHT22;25037;49.488;9.900;2023-04-02T20:48:35;6.60;58.50
39325;DHT22;25037;49.488;9.900;2023-04-02T20:51:04;6.50;58.40
39325;DHT22;25037;49.488;9.900;2023-04-02T20:53:33;6.60;58.60
39325;DHT22;25037;49.488;9.900;2023-04-02T20:56:14;6.60;58.50
39325;DHT22;25037;49.488;9.900;2023-04-02T20:58:42;6.60;58.30
39325;DHT22;25037;49.488;9.900;2023-04-02T21:01:25;6.60;58.40
39325;DHT22;25037;49.488;9.900;2023-04-02T21:03:57;6.60;58.40